SWA3723 KBNA-KJAX
Flight info
| Callsign | SWA3723 |
|---|---|
| Flight time | 1h 18m |
| Altitude | 37000 |
| Route | TIPPN4 DENST THRSR DUCHY OHDEA2 |
| Aircraft | B38M/M-SADE2E3GHIJ4J7P2RWZ/LB1D1 |
Departure
| Time | 2026-05-07 04:31 |
|---|---|
| Airport | Nashville International Airport (KBNA) |
Arrival
| Time | 2026-05-07 05:49 |
|---|---|
| Airport | Jacksonville International Airport (KJAX) |
| Time | Latitude | Longitude | Altitude | Speed | Heading |
|---|---|---|---|---|---|
| 2026-05-07 04:25 | 36.12720 | -86.66999 | 582 ft | 3 kts | 313° |
| 2026-05-07 04:25 | 36.12739 | -86.67026 | 581 ft | 5 kts | 307° |
| 2026-05-07 04:26 | 36.12746 | -86.67047 | 581 ft | 1 kts | 264° |
| 2026-05-07 04:26 | 36.12747 | -86.67058 | 582 ft | 0 kts | 287° |
| 2026-05-07 04:26 | 36.12749 | -86.67064 | 582 ft | 2 kts | 288° |
| 2026-05-07 04:26 | 36.12755 | -86.67085 | 582 ft | 3 kts | 293° |
| 2026-05-07 04:27 | 36.12768 | -86.67121 | 582 ft | 6 kts | 297° |
| 2026-05-07 04:27 | 36.12803 | -86.67217 | 581 ft | 19 kts | 289° |
| 2026-05-07 04:27 | 36.12753 | -86.67371 | 583 ft | 26 kts | 220° |
| 2026-05-07 04:27 | 36.12585 | -86.67543 | 587 ft | 37 kts | 217° |
| 2026-05-07 04:28 | 36.12330 | -86.67718 | 588 ft | 48 kts | 198° |
| 2026-05-07 04:28 | 36.12042 | -86.67973 | 585 ft | 58 kts | 241° |
| 2026-05-07 04:28 | 36.11721 | -86.68247 | 586 ft | 62 kts | 196° |
| 2026-05-07 04:28 | 36.11505 | -86.68419 | 588 ft | 25 kts | 304° |
| 2026-05-07 04:29 | 36.11656 | -86.68486 | 603 ft | 24 kts | 334° |
| 2026-05-07 04:29 | 36.11782 | -86.68611 | 614 ft | 20 kts | 329° |
| 2026-05-07 04:29 | 36.11895 | -86.68599 | 608 ft | 0 kts | 19° |
| 2026-05-07 04:30 | 36.11926 | -86.68586 | 614 ft | 29 kts | 19° |
| 2026-05-07 04:30 | 36.12445 | -86.68384 | 587 ft | 124 kts | 18° |
| 2026-05-07 04:31 | 36.13480 | -86.67954 | 798 ft | 179 kts | 18° |
| 2026-05-07 04:31 | 36.14636 | -86.67530 | 2111 ft | 162 kts | 14° |
| 2026-05-07 04:31 | 36.15746 | -86.67028 | 2752 ft | 193 kts | 22° |
| 2026-05-07 04:31 | 36.17007 | -86.66015 | 3065 ft | 234 kts | 48° |
| 2026-05-07 04:32 | 36.17906 | -86.64269 | 3715 ft | 253 kts | 63° |
| 2026-05-07 04:32 | 36.18800 | -86.62275 | 4350 ft | 274 kts | 59° |
| 2026-05-07 04:32 | 36.19813 | -86.60246 | 5157 ft | 286 kts | 56° |
| 2026-05-07 04:32 | 36.20927 | -86.58150 | 6110 ft | 291 kts | 54° |
| 2026-05-07 04:33 | 36.22082 | -86.55915 | 6302 ft | 326 kts | 59° |
| 2026-05-07 04:33 | 36.23068 | -86.53249 | 6062 ft | 351 kts | 65° |
| 2026-05-07 04:33 | 36.23807 | -86.50545 | 6360 ft | 314 kts | 81° |
| 2026-05-07 04:33 | 36.23820 | -86.47905 | 6490 ft | 310 kts | 105° |
| 2026-05-07 04:34 | 36.23080 | -86.45525 | 6584 ft | 303 kts | 127° |
| 2026-05-07 04:34 | 36.21786 | -86.43498 | 6847 ft | 296 kts | 145° |
| 2026-05-07 04:34 | 36.20105 | -86.42273 | 7707 ft | 273 kts | 171° |
| 2026-05-07 04:34 | 36.18280 | -86.41965 | 8463 ft | 258 kts | 193° |
| 2026-05-07 04:35 | 36.16630 | -86.42241 | 9985 ft | 226 kts | 197° |
| 2026-05-07 04:35 | 36.15083 | -86.42465 | 11088 ft | 227 kts | 199° |
| 2026-05-07 04:35 | 36.13490 | -86.42671 | 11860 ft | 233 kts | 194° |
| 2026-05-07 04:35 | 36.11838 | -86.42761 | 12595 ft | 243 kts | 193° |
| 2026-05-07 04:36 | 36.10135 | -86.42848 | 13358 ft | 250 kts | 193° |
| 2026-05-07 04:36 | 36.08400 | -86.43001 | 14200 ft | 247 kts | 199° |
| 2026-05-07 04:36 | 36.06659 | -86.43294 | 14770 ft | 262 kts | 198° |
| 2026-05-07 04:36 | 36.04764 | -86.43532 | 15168 ft | 285 kts | 195° |
| 2026-05-07 04:37 | 36.02790 | -86.43712 | 15584 ft | 304 kts | 194° |
| 2026-05-07 04:37 | 36.00597 | -86.43866 | 15931 ft | 325 kts | 193° |
| 2026-05-07 04:37 | 35.98273 | -86.44004 | 16321 ft | 343 kts | 192° |
| 2026-05-07 04:37 | 35.95876 | -86.44128 | 16839 ft | 354 kts | 192° |
| 2026-05-07 04:38 | 35.93519 | -86.44239 | 17585 ft | 356 kts | 192° |
| 2026-05-07 04:38 | 35.91063 | -86.44354 | 18311 ft | 360 kts | 192° |
| 2026-05-07 04:38 | 35.88546 | -86.44470 | 18936 ft | 364 kts | 192° |
| 2026-05-07 04:38 | 35.86008 | -86.44587 | 19551 ft | 368 kts | 192° |
| 2026-05-07 04:39 | 35.83565 | -86.44701 | 20134 ft | 371 kts | 193° |
| 2026-05-07 04:39 | 35.80974 | -86.44827 | 20734 ft | 376 kts | 193° |
| 2026-05-07 04:39 | 35.78343 | -86.44952 | 21327 ft | 380 kts | 193° |
| 2026-05-07 04:39 | 35.75679 | -86.45077 | 21630 ft | 386 kts | 193° |
| 2026-05-07 04:40 | 35.73064 | -86.45190 | 21720 ft | 385 kts | 192° |
| 2026-05-07 04:40 | 35.70384 | -86.45308 | 21734 ft | 385 kts | 192° |
| 2026-05-07 04:40 | 35.67708 | -86.45430 | 21724 ft | 385 kts | 192° |
| 2026-05-07 04:40 | 35.65036 | -86.45552 | 21723 ft | 385 kts | 192° |
| 2026-05-07 04:41 | 35.62351 | -86.45675 | 21722 ft | 386 kts | 192° |
| 2026-05-07 04:41 | 35.59660 | -86.45718 | 21712 ft | 393 kts | 184° |
| 2026-05-07 04:41 | 35.56932 | -86.45016 | 21716 ft | 405 kts | 175° |
| 2026-05-07 04:41 | 35.54196 | -86.44168 | 21711 ft | 405 kts | 175° |
| 2026-05-07 04:42 | 35.51484 | -86.43320 | 21711 ft | 406 kts | 175° |
| 2026-05-07 04:42 | 35.48743 | -86.42453 | 21707 ft | 406 kts | 175° |
| 2026-05-07 04:42 | 35.46007 | -86.41586 | 21708 ft | 407 kts | 174° |
| 2026-05-07 04:42 | 35.43260 | -86.40715 | 21710 ft | 408 kts | 174° |
| 2026-05-07 04:43 | 35.40541 | -86.39834 | 22246 ft | 410 kts | 171° |
| 2026-05-07 04:43 | 35.37916 | -86.38300 | 22892 ft | 429 kts | 153° |
| 2026-05-07 04:43 | 35.35586 | -86.35945 | 23535 ft | 439 kts | 145° |
| 2026-05-07 04:43 | 35.33273 | -86.33470 | 23983 ft | 443 kts | 145° |
| 2026-05-07 04:44 | 35.30955 | -86.30973 | 24489 ft | 446 kts | 145° |
| 2026-05-07 04:44 | 35.28618 | -86.28449 | 24983 ft | 449 kts | 145° |
| 2026-05-07 04:44 | 35.26269 | -86.25909 | 25458 ft | 452 kts | 146° |
| 2026-05-07 04:44 | 35.23904 | -86.23355 | 25912 ft | 455 kts | 146° |
| 2026-05-07 04:45 | 35.21553 | -86.20815 | 26369 ft | 458 kts | 146° |
| 2026-05-07 04:45 | 35.19156 | -86.18231 | 26817 ft | 461 kts | 146° |
| 2026-05-07 04:45 | 35.16743 | -86.15629 | 27256 ft | 464 kts | 146° |
| 2026-05-07 04:45 | 35.14311 | -86.13010 | 27685 ft | 467 kts | 146° |
| 2026-05-07 04:46 | 35.11902 | -86.10417 | 28105 ft | 471 kts | 146° |
| 2026-05-07 04:46 | 35.09440 | -86.07771 | 28517 ft | 474 kts | 146° |
| 2026-05-07 04:46 | 35.06956 | -86.05101 | 28937 ft | 477 kts | 146° |
| 2026-05-07 04:46 | 35.04457 | -86.02420 | 29344 ft | 480 kts | 146° |
| 2026-05-07 04:47 | 35.01979 | -85.99761 | 29693 ft | 484 kts | 147° |
| 2026-05-07 04:47 | 34.99473 | -85.97078 | 30075 ft | 487 kts | 146° |
| 2026-05-07 04:47 | 34.96916 | -85.94340 | 30393 ft | 491 kts | 147° |
| 2026-05-07 04:47 | 34.94343 | -85.91587 | 30702 ft | 494 kts | 147° |
| 2026-05-07 04:48 | 34.91747 | -85.88812 | 30958 ft | 499 kts | 147° |
| 2026-05-07 04:48 | 34.89124 | -85.86011 | 31251 ft | 503 kts | 147° |
| 2026-05-07 04:48 | 34.86488 | -85.83198 | 31557 ft | 506 kts | 147° |
| 2026-05-07 04:48 | 34.83826 | -85.80360 | 31824 ft | 510 kts | 147° |
| 2026-05-07 04:49 | 34.81161 | -85.77521 | 32115 ft | 514 kts | 147° |
| 2026-05-07 04:49 | 34.78462 | -85.74648 | 32400 ft | 517 kts | 147° |
| 2026-05-07 04:49 | 34.75827 | -85.71618 | 32686 ft | 524 kts | 144° |
| 2026-05-07 04:49 | 34.73194 | -85.68542 | 32973 ft | 527 kts | 144° |
| 2026-05-07 04:50 | 34.70531 | -85.65460 | 33238 ft | 530 kts | 144° |
| 2026-05-07 04:50 | 34.67847 | -85.62363 | 33541 ft | 533 kts | 144° |
| 2026-05-07 04:50 | 34.65153 | -85.59256 | 33839 ft | 536 kts | 144° |
| 2026-05-07 04:50 | 34.62438 | -85.56129 | 34082 ft | 540 kts | 144° |
| 2026-05-07 04:51 | 34.59751 | -85.53037 | 34357 ft | 541 kts | 144° |
| 2026-05-07 04:51 | 34.57019 | -85.49897 | 34717 ft | 540 kts | 144° |
| 2026-05-07 04:51 | 34.54295 | -85.46768 | 35080 ft | 540 kts | 144° |
| 2026-05-07 04:51 | 34.51567 | -85.43639 | 35429 ft | 540 kts | 144° |
| 2026-05-07 04:52 | 34.48870 | -85.40548 | 35766 ft | 539 kts | 145° |
| 2026-05-07 04:52 | 34.46145 | -85.37427 | 36111 ft | 539 kts | 145° |
| 2026-05-07 04:52 | 34.43422 | -85.34312 | 36454 ft | 538 kts | 145° |
| 2026-05-07 04:52 | 34.40696 | -85.31195 | 36777 ft | 538 kts | 145° |
| 2026-05-07 04:53 | 34.38051 | -85.28174 | 36990 ft | 539 kts | 145° |
| 2026-05-07 04:53 | 34.35354 | -85.25098 | 37005 ft | 538 kts | 145° |
| 2026-05-07 04:53 | 34.29884 | -85.18866 | 36988 ft | 536 kts | 144° |
| 2026-05-07 04:54 | 34.24456 | -85.12693 | 36986 ft | 537 kts | 144° |
| 2026-05-07 04:54 | 34.19045 | -85.06552 | 36974 ft | 538 kts | 144° |
| 2026-05-07 04:55 | 34.13601 | -85.00385 | 37019 ft | 538 kts | 144° |
| 2026-05-07 04:55 | 34.08137 | -84.94205 | 37035 ft | 539 kts | 144° |
| 2026-05-07 04:56 | 34.02740 | -84.88113 | 37029 ft | 539 kts | 144° |
| 2026-05-07 04:56 | 33.97264 | -84.81944 | 37006 ft | 540 kts | 144° |
| 2026-05-07 04:57 | 33.91780 | -84.75777 | 36993 ft | 541 kts | 143° |
| 2026-05-07 04:57 | 33.86281 | -84.69605 | 36984 ft | 542 kts | 143° |
| 2026-05-07 04:58 | 33.81695 | -84.64465 | 36995 ft | 542 kts | 143° |
| 2026-05-07 04:58 | 33.75356 | -84.57376 | 36989 ft | 543 kts | 143° |
| 2026-05-07 04:59 | 33.69821 | -84.51195 | 37002 ft | 543 kts | 143° |
| 2026-05-07 04:59 | 33.64281 | -84.45019 | 36997 ft | 543 kts | 143° |
| 2026-05-07 05:00 | 33.61351 | -84.42235 | 36997 ft | 533 kts | 154° |
| 2026-05-07 05:00 | 33.58289 | -84.39711 | 37000 ft | 535 kts | 153° |
| 2026-05-07 05:00 | 33.52173 | -84.34649 | 36989 ft | 535 kts | 153° |
| 2026-05-07 05:01 | 33.47173 | -84.30535 | 37021 ft | 535 kts | 153° |
| 2026-05-07 05:01 | 33.41029 | -84.25489 | 37024 ft | 535 kts | 153° |
| 2026-05-07 05:02 | 33.34930 | -84.20490 | 37022 ft | 536 kts | 153° |
| 2026-05-07 05:02 | 33.28776 | -84.15484 | 37020 ft | 532 kts | 155° |
| 2026-05-07 05:03 | 33.22591 | -84.10711 | 37011 ft | 534 kts | 152° |
| 2026-05-07 05:03 | 33.16504 | -84.05490 | 37008 ft | 537 kts | 152° |
| 2026-05-07 05:04 | 33.10413 | -84.00481 | 37009 ft | 535 kts | 153° |
| 2026-05-07 05:04 | 33.04266 | -83.95483 | 37009 ft | 535 kts | 153° |
| 2026-05-07 05:05 | 32.98124 | -83.90499 | 37006 ft | 534 kts | 153° |
| 2026-05-07 05:05 | 32.91976 | -83.85520 | 37013 ft | 534 kts | 153° |
| 2026-05-07 05:06 | 32.85847 | -83.80564 | 37025 ft | 534 kts | 153° |
| 2026-05-07 05:06 | 32.79745 | -83.75639 | 37036 ft | 534 kts | 152° |
| 2026-05-07 05:07 | 32.73612 | -83.70736 | 37092 ft | 534 kts | 152° |
| 2026-05-07 05:07 | 32.67480 | -83.65766 | 37034 ft | 533 kts | 152° |
| 2026-05-07 05:08 | 32.61415 | -83.60893 | 37031 ft | 533 kts | 152° |
| 2026-05-07 05:08 | 32.55269 | -83.55966 | 37036 ft | 533 kts | 152° |
| 2026-05-07 05:09 | 32.49225 | -83.51128 | 37032 ft | 532 kts | 152° |
| 2026-05-07 05:09 | 32.43082 | -83.46219 | 37021 ft | 532 kts | 152° |
| 2026-05-07 05:10 | 32.36962 | -83.41337 | 37018 ft | 532 kts | 152° |
| 2026-05-07 05:10 | 32.30820 | -83.36445 | 36931 ft | 532 kts | 152° |
| 2026-05-07 05:11 | 32.27762 | -83.34011 | 36555 ft | 527 kts | 152° |
| 2026-05-07 05:11 | 32.24700 | -83.31580 | 35401 ft | 537 kts | 152° |
| 2026-05-07 05:11 | 32.21591 | -83.29109 | 34787 ft | 535 kts | 152° |
| 2026-05-07 05:11 | 32.18524 | -83.26676 | 34239 ft | 529 kts | 151° |
| 2026-05-07 05:12 | 32.15522 | -83.24296 | 33440 ft | 528 kts | 151° |
| 2026-05-07 05:12 | 32.12478 | -83.21883 | 32655 ft | 526 kts | 151° |
| 2026-05-07 05:12 | 32.09454 | -83.19490 | 31982 ft | 521 kts | 151° |
| 2026-05-07 05:12 | 32.06459 | -83.17121 | 31363 ft | 516 kts | 150° |
| 2026-05-07 05:13 | 32.03515 | -83.14796 | 30792 ft | 510 kts | 150° |
| 2026-05-07 05:13 | 32.00580 | -83.12477 | 30242 ft | 505 kts | 150° |
| 2026-05-07 05:13 | 31.97676 | -83.10187 | 29618 ft | 500 kts | 150° |
| 2026-05-07 05:13 | 31.94835 | -83.07947 | 29008 ft | 495 kts | 150° |
| 2026-05-07 05:14 | 31.91988 | -83.05704 | 28421 ft | 489 kts | 150° |
| 2026-05-07 05:14 | 31.89175 | -83.03489 | 27838 ft | 484 kts | 150° |
| 2026-05-07 05:14 | 31.86389 | -83.01297 | 27268 ft | 479 kts | 150° |
| 2026-05-07 05:14 | 31.83628 | -82.99126 | 26720 ft | 474 kts | 150° |
| 2026-05-07 05:15 | 31.80896 | -82.96979 | 26192 ft | 470 kts | 150° |
| 2026-05-07 05:15 | 31.78195 | -82.94858 | 25658 ft | 465 kts | 150° |
| 2026-05-07 05:15 | 31.75516 | -82.92756 | 25145 ft | 461 kts | 150° |
| 2026-05-07 05:15 | 31.72945 | -82.90531 | 24646 ft | 459 kts | 142° |
| 2026-05-07 05:16 | 31.70644 | -82.88190 | 24242 ft | 454 kts | 142° |
| 2026-05-07 05:16 | 31.68278 | -82.85788 | 23940 ft | 445 kts | 142° |
| 2026-05-07 05:16 | 31.65925 | -82.83397 | 23782 ft | 448 kts | 142° |
| 2026-05-07 05:16 | 31.63568 | -82.81003 | 23662 ft | 448 kts | 142° |
| 2026-05-07 05:17 | 31.61219 | -82.78617 | 23570 ft | 447 kts | 142° |
| 2026-05-07 05:17 | 31.58867 | -82.76230 | 23478 ft | 447 kts | 142° |
| 2026-05-07 05:17 | 31.56516 | -82.73845 | 23393 ft | 446 kts | 142° |
| 2026-05-07 05:17 | 31.54175 | -82.71472 | 23313 ft | 445 kts | 142° |
| 2026-05-07 05:18 | 31.51871 | -82.69140 | 23236 ft | 444 kts | 142° |
| 2026-05-07 05:18 | 31.49531 | -82.66770 | 23157 ft | 444 kts | 142° |
| 2026-05-07 05:18 | 31.47199 | -82.64412 | 23088 ft | 443 kts | 142° |
| 2026-05-07 05:18 | 31.44842 | -82.62105 | 22834 ft | 439 kts | 147° |
| 2026-05-07 05:19 | 31.42397 | -82.60074 | 22299 ft | 434 kts | 148° |
| 2026-05-07 05:19 | 31.39953 | -82.58025 | 21784 ft | 431 kts | 148° |
| 2026-05-07 05:19 | 31.37537 | -82.55978 | 21237 ft | 428 kts | 147° |
| 2026-05-07 05:19 | 31.35133 | -82.53932 | 20692 ft | 426 kts | 147° |
| 2026-05-07 05:20 | 31.32806 | -82.51949 | 20156 ft | 424 kts | 147° |
| 2026-05-07 05:20 | 31.30426 | -82.49920 | 19610 ft | 422 kts | 147° |
| 2026-05-07 05:20 | 31.28057 | -82.47901 | 19057 ft | 420 kts | 147° |
| 2026-05-07 05:20 | 31.25702 | -82.45897 | 18522 ft | 416 kts | 147° |
| 2026-05-07 05:21 | 31.23413 | -82.43949 | 17941 ft | 410 kts | 147° |
| 2026-05-07 05:21 | 31.18882 | -82.40099 | 16861 ft | 396 kts | 147° |
| 2026-05-07 05:21 | 31.16677 | -82.38225 | 16354 ft | 388 kts | 147° |
| 2026-05-07 05:22 | 31.14541 | -82.36411 | 15866 ft | 381 kts | 147° |
| 2026-05-07 05:22 | 31.12412 | -82.34604 | 15380 ft | 375 kts | 147° |
| 2026-05-07 05:22 | 31.10312 | -82.32824 | 14904 ft | 371 kts | 146° |
| 2026-05-07 05:22 | 31.08228 | -82.31061 | 14424 ft | 370 kts | 146° |
| 2026-05-07 05:23 | 31.06166 | -82.29312 | 13959 ft | 367 kts | 146° |
| 2026-05-07 05:23 | 31.04060 | -82.27670 | 13369 ft | 364 kts | 149° |
| 2026-05-07 05:23 | 31.01981 | -82.26085 | 12845 ft | 359 kts | 149° |
| 2026-05-07 05:23 | 30.99915 | -82.24499 | 12402 ft | 353 kts | 149° |
| 2026-05-07 05:24 | 30.97859 | -82.22988 | 11975 ft | 345 kts | 154° |
| 2026-05-07 05:24 | 30.95776 | -82.21682 | 11636 ft | 335 kts | 154° |
| 2026-05-07 05:24 | 30.93760 | -82.20410 | 11345 ft | 325 kts | 154° |
| 2026-05-07 05:24 | 30.91802 | -82.19168 | 11058 ft | 316 kts | 154° |
| 2026-05-07 05:25 | 30.89953 | -82.17992 | 10775 ft | 308 kts | 154° |
| 2026-05-07 05:25 | 30.88094 | -82.16810 | 10481 ft | 301 kts | 154° |
| 2026-05-07 05:25 | 30.86276 | -82.15654 | 10199 ft | 297 kts | 154° |
| 2026-05-07 05:25 | 30.84463 | -82.14501 | 9912 ft | 297 kts | 154° |
| 2026-05-07 05:26 | 30.82679 | -82.13367 | 9595 ft | 297 kts | 154° |
| 2026-05-07 05:26 | 30.80870 | -82.12218 | 9302 ft | 296 kts | 154° |
| 2026-05-07 05:26 | 30.79070 | -82.11074 | 9013 ft | 294 kts | 154° |
| 2026-05-07 05:26 | 30.77286 | -82.09942 | 8727 ft | 291 kts | 154° |
| 2026-05-07 05:27 | 30.75521 | -82.08822 | 8459 ft | 288 kts | 154° |
| 2026-05-07 05:27 | 30.73768 | -82.07710 | 8189 ft | 285 kts | 154° |
| 2026-05-07 05:27 | 30.72032 | -82.06611 | 7878 ft | 283 kts | 156° |
| 2026-05-07 05:27 | 30.70321 | -82.05530 | 7658 ft | 277 kts | 157° |
| 2026-05-07 05:28 | 30.68681 | -82.04497 | 7379 ft | 275 kts | 156° |
| 2026-05-07 05:28 | 30.67010 | -82.03436 | 7126 ft | 273 kts | 156° |
| 2026-05-07 05:28 | 30.65348 | -82.02384 | 6862 ft | 270 kts | 155° |
| 2026-05-07 05:28 | 30.63708 | -82.01342 | 6603 ft | 268 kts | 156° |
| 2026-05-07 05:29 | 30.62118 | -82.00335 | 6334 ft | 266 kts | 156° |
| 2026-05-07 05:29 | 30.60501 | -81.99311 | 6063 ft | 263 kts | 156° |
| 2026-05-07 05:29 | 30.58900 | -81.98300 | 5809 ft | 260 kts | 156° |
| 2026-05-07 05:29 | 30.57318 | -81.97299 | 5545 ft | 258 kts | 155° |
| 2026-05-07 05:30 | 30.55781 | -81.96328 | 5292 ft | 255 kts | 156° |
| 2026-05-07 05:30 | 30.54232 | -81.95350 | 5046 ft | 252 kts | 156° |
| 2026-05-07 05:30 | 30.52720 | -81.94395 | 4799 ft | 250 kts | 155° |
| 2026-05-07 05:30 | 30.51204 | -81.93438 | 4533 ft | 247 kts | 155° |
| 2026-05-07 05:31 | 30.49702 | -81.92492 | 4272 ft | 244 kts | 155° |
| 2026-05-07 05:31 | 30.48213 | -81.91556 | 4026 ft | 242 kts | 156° |
| 2026-05-07 05:31 | 30.46743 | -81.90633 | 3779 ft | 239 kts | 156° |
| 2026-05-07 05:31 | 30.45317 | -81.89655 | 3490 ft | 241 kts | 144° |
| 2026-05-07 05:32 | 30.44418 | -81.88053 | 3127 ft | 252 kts | 107° |
| 2026-05-07 05:32 | 30.44526 | -81.86036 | 2816 ft | 257 kts | 72° |
| 2026-05-07 05:32 | 30.45173 | -81.84144 | 2714 ft | 244 kts | 71° |
| 2026-05-07 05:32 | 30.45751 | -81.82380 | 2708 ft | 229 kts | 71° |
| 2026-05-07 05:33 | 30.46297 | -81.80646 | 2713 ft | 228 kts | 72° |
| 2026-05-07 05:33 | 30.46848 | -81.78913 | 2686 ft | 229 kts | 72° |
| 2026-05-07 05:33 | 30.47394 | -81.77184 | 2675 ft | 228 kts | 72° |
| 2026-05-07 05:33 | 30.47935 | -81.75455 | 2644 ft | 228 kts | 72° |
| 2026-05-07 05:34 | 30.48458 | -81.73770 | 2621 ft | 228 kts | 72° |
| 2026-05-07 05:34 | 30.48991 | -81.72041 | 2602 ft | 228 kts | 72° |
| 2026-05-07 05:34 | 30.49525 | -81.70310 | 2563 ft | 228 kts | 72° |
| 2026-05-07 05:34 | 30.50047 | -81.68581 | 2547 ft | 227 kts | 71° |
| 2026-05-07 05:35 | 30.50550 | -81.66927 | 2713 ft | 227 kts | 73° |
| 2026-05-07 05:35 | 30.51225 | -81.65260 | 2810 ft | 232 kts | 66° |
| 2026-05-07 05:35 | 30.51894 | -81.63473 | 2857 ft | 249 kts | 64° |
| 2026-05-07 05:35 | 30.52930 | -81.61861 | 2915 ft | 250 kts | 38° |
| 2026-05-07 05:36 | 30.54412 | -81.61080 | 2995 ft | 229 kts | 8° |
| 2026-05-07 05:36 | 30.55936 | -81.61089 | 2980 ft | 211 kts | 345° |
| 2026-05-07 05:36 | 30.57261 | -81.61681 | 2972 ft | 201 kts | 325° |
| 2026-05-07 05:36 | 30.58312 | -81.62700 | 2976 ft | 196 kts | 304° |
| 2026-05-07 05:37 | 30.58970 | -81.64021 | 2984 ft | 191 kts | 286° |
| 2026-05-07 05:37 | 30.59244 | -81.65508 | 2986 ft | 187 kts | 269° |
| 2026-05-07 05:37 | 30.59098 | -81.66986 | 2973 ft | 187 kts | 251° |
| 2026-05-07 05:37 | 30.58654 | -81.68455 | 2984 ft | 201 kts | 249° |
| 2026-05-07 05:38 | 30.58178 | -81.70035 | 3003 ft | 219 kts | 249° |
| 2026-05-07 05:38 | 30.57656 | -81.71772 | 2985 ft | 236 kts | 249° |
| 2026-05-07 05:38 | 30.57108 | -81.73629 | 2982 ft | 248 kts | 250° |
| 2026-05-07 05:38 | 30.56548 | -81.75544 | 2989 ft | 253 kts | 249° |
| 2026-05-07 05:39 | 30.55992 | -81.77448 | 2982 ft | 254 kts | 249° |
| 2026-05-07 05:39 | 30.55426 | -81.79393 | 2990 ft | 255 kts | 250° |
| 2026-05-07 05:39 | 30.54862 | -81.81338 | 2993 ft | 254 kts | 249° |
| 2026-05-07 05:39 | 30.54300 | -81.83275 | 2998 ft | 254 kts | 249° |
| 2026-05-07 05:40 | 30.53741 | -81.85200 | 3002 ft | 253 kts | 249° |
| 2026-05-07 05:40 | 30.53180 | -81.87131 | 3011 ft | 254 kts | 249° |
| 2026-05-07 05:40 | 30.52616 | -81.89071 | 3017 ft | 253 kts | 249° |
| 2026-05-07 05:40 | 30.52056 | -81.90997 | 3041 ft | 253 kts | 249° |
| 2026-05-07 05:41 | 30.51507 | -81.92885 | 3046 ft | 253 kts | 249° |
| 2026-05-07 05:41 | 30.50946 | -81.94813 | 3047 ft | 253 kts | 249° |
| 2026-05-07 05:41 | 30.50383 | -81.96746 | 3049 ft | 253 kts | 249° |
| 2026-05-07 05:41 | 30.49820 | -81.98678 | 3056 ft | 253 kts | 249° |
| 2026-05-07 05:42 | 30.49122 | -82.00504 | 3048 ft | 244 kts | 232° |
| 2026-05-07 05:42 | 30.47928 | -82.01642 | 3078 ft | 206 kts | 205° |
| 2026-05-07 05:42 | 30.46631 | -82.01948 | 3077 ft | 179 kts | 181° |
| 2026-05-07 05:42 | 30.45486 | -82.01646 | 3038 ft | 166 kts | 161° |
| 2026-05-07 05:43 | 30.44518 | -82.00906 | 3003 ft | 176 kts | 142° |
| 2026-05-07 05:43 | 30.43742 | -81.99736 | 3007 ft | 191 kts | 122° |
| 2026-05-07 05:43 | 30.43338 | -81.98228 | 2983 ft | 203 kts | 102° |
| 2026-05-07 05:43 | 30.43454 | -81.96602 | 3012 ft | 205 kts | 78° |
| 2026-05-07 05:44 | 30.43947 | -81.95031 | 3115 ft | 206 kts | 69° |
| 2026-05-07 05:44 | 30.44487 | -81.93487 | 3114 ft | 208 kts | 82° |
| 2026-05-07 05:44 | 30.44448 | -81.91866 | 3083 ft | 201 kts | 108° |
| 2026-05-07 05:44 | 30.44106 | -81.90295 | 3078 ft | 202 kts | 109° |
| 2026-05-07 05:45 | 30.44003 | -81.88713 | 3027 ft | 206 kts | 84° |
| 2026-05-07 05:45 | 30.44390 | -81.87104 | 3023 ft | 209 kts | 73° |
| 2026-05-07 05:45 | 30.44864 | -81.85551 | 2901 ft | 197 kts | 73° |
| 2026-05-07 05:45 | 30.45315 | -81.84085 | 2636 ft | 190 kts | 73° |
| 2026-05-07 05:46 | 30.45751 | -81.82661 | 2331 ft | 187 kts | 72° |
| 2026-05-07 05:46 | 30.46182 | -81.81253 | 2039 ft | 184 kts | 73° |
| 2026-05-07 05:46 | 30.46601 | -81.79857 | 1845 ft | 183 kts | 72° |
| 2026-05-07 05:46 | 30.47024 | -81.78474 | 1813 ft | 182 kts | 73° |
| 2026-05-07 05:47 | 30.47461 | -81.77095 | 1600 ft | 178 kts | 72° |
| 2026-05-07 05:47 | 30.47863 | -81.75770 | 1358 ft | 172 kts | 73° |
| 2026-05-07 05:47 | 30.48261 | -81.74480 | 995 ft | 168 kts | 74° |
| 2026-05-07 05:47 | 30.48655 | -81.73229 | 779 ft | 162 kts | 74° |
| 2026-05-07 05:48 | 30.48995 | -81.72053 | 538 ft | 155 kts | 73° |
| 2026-05-07 05:48 | 30.49230 | -81.71267 | 364 ft | 152 kts | 72° |
| 2026-05-07 05:48 | 30.49582 | -81.70119 | 114 ft | 152 kts | 72° |
| 2026-05-07 05:48 | 30.49938 | -81.68961 | 46 ft | 144 kts | 71° |
| 2026-05-07 05:49 | 30.50223 | -81.68030 | 41 ft | 92 kts | 70° |
| 2026-05-07 05:49 | 30.50376 | -81.67525 | 35 ft | 44 kts | 71° |
| 2026-05-07 05:49 | 30.50457 | -81.67280 | 33 ft | 29 kts | 69° |
| 2026-05-07 05:49 | 30.50439 | -81.67134 | 35 ft | 30 kts | 144° |
| 2026-05-07 05:50 | 30.50313 | -81.67162 | 35 ft | 19 kts | 256° |
| 2026-05-07 05:50 | 30.50263 | -81.67339 | 34 ft | 29 kts | 250° |
| 2026-05-07 05:50 | 30.50176 | -81.67612 | 35 ft | 43 kts | 249° |
| 2026-05-07 05:50 | 30.50046 | -81.67958 | 38 ft | 48 kts | 209° |
| 2026-05-07 05:51 | 30.49902 | -81.68266 | 38 ft | 51 kts | 250° |
| 2026-05-07 05:51 | 30.49767 | -81.68466 | 38 ft | 33 kts | 186° |
| 2026-05-07 05:51 | 30.49546 | -81.68550 | 40 ft | 34 kts | 218° |
| 2026-05-07 05:51 | 30.49367 | -81.68738 | 41 ft | 36 kts | 213° |
| 2026-05-07 05:52 | 30.49128 | -81.68830 | 42 ft | 37 kts | 185° |
| 2026-05-07 05:52 | 30.48905 | -81.68725 | 39 ft | 31 kts | 113° |
| 2026-05-07 05:52 | 30.48892 | -81.68602 | 40 ft | 10 kts | 61° |
| 2026-05-07 05:52 | 30.48936 | -81.68537 | 45 ft | 11 kts | 32° |
| 2026-05-07 05:53 | 30.48976 | -81.68531 | 45 ft | 1 kts | 315° |
| 2026-05-07 05:53 | 30.49011 | -81.68566 | 44 ft | 15 kts | 322° |
| 2026-05-07 05:53 | 30.49025 | -81.68581 | 44 ft | 0 kts | 315° |
| 2026-05-07 05:53 | 30.49018 | -81.68574 | 44 ft | 0 kts | 319° |